KLZUKJZI

Guest
Details From KLZU - Gwinnett Co Briscoe Fld
To KJZI - Charleston Executive
Flight Number -
Tags generated
Created
Modified
Stats Distance 216 nm / 399 km
Max Altitude 25,600 ft / 7,803 m
Waypoints 4
Social Downloads 2
Likes 0
Share VATSIM

Download

Looking for another format? Having issues loading an existing format? Contact us
Advertisement - Login to hide

Notes

Basic altitude profile: - Ascent Rate: 2500ft/min - Ascent Speed: 250kts - Cruise Altitude: 35000ft - Cruise Speed: 420kts - Descent Rate: 1500ft/min - Descent Speed: 250kts Options: - Use NATs: yes - Use PACOTS: yes - Use low airways: yes - Use high airways: no

Route

KLZU IRQ V18 LASHE KJZI

ID Type Via Altitude Latitude Longitude Leg Dist Tot Dist Heading (true) Name
O KLZU APT - 0 ft / 0 m 33.97808˚ -83.96237˚ - 0 nm - Gwinnett Co Briscoe Fld
IRQ VOR - 25,600 ft / 7,803 m 33.70736˚ -82.16206˚ 91 nm 91 nm 100° / 101° COLLIERS VORTAC
LASHE FIX V18 (AWY-LO) 17,000 ft / 5,182 m 33.56066˚ -81.76869˚ 21 nm 112 nm 114° / 114° -
O KJZI APT - 0 ft / 0 m 32.70079˚ -80.00252˚ 102 nm 215 nm 120° / 121° Charleston Executive

Altitude Profile

Advertisement - Login to hide

Weather


0- 5 10 15 20 25 30 35+ Temperature / ° C

Clouds and Precipitation
Forecast for 2017-12-16 18:00 UTC. Updated an hour ago

Ground ~20,000 ft ~40,000 ft Winds

KLZU

Details ICAO KLZU (LZU)
Name Gwinnett Co Briscoe Fld
Region United States
Timezone America/New_York (UTC-5.0)
Stats Elevation 1,061 ft / 323 m (AMSL)
Location 33.978082° -83.962365°
Runways 1
Magnetic Variation 5.463° W

METAR

KLZU 161756Z VRB03KT 10SM CLR 09/M04 A3025 RMK AO2 SLP260 T00941044 10094 21022 58013

Decode

TAF

Not found

Departure Runways

ID Width Length Bearing (true) Bearing (mag) Surface Threshold Offset Overrun Length
07 98 ft / 30 m 5,995 ft / 1,827 m 63.58° 69.04° Asphalt 0 ft / 0 m 151 ft / 46 m
25 98 ft / 30 m 5,995 ft / 1,827 m 243.59° 249.05° Asphalt 0 ft / 0 m 151 ft / 46 m

KJZI

Details ICAO KJZI
Name Charleston Executive
Region United States
Timezone America/New_York (UTC-5.0)
Stats Elevation 17 ft / 5 m (AMSL)
Location 32.700788° -80.002515°
Runways 2
Magnetic Variation 7.883° W

METAR

KJZI 161835Z AUTO 10007KT 10SM CLR 11/03 A3027 RMK AO2

Decode

TAF

Not found

Destination Runways

ID Width Length Bearing (true) Bearing (mag) Surface Threshold Offset Overrun Length
04 151 ft / 46 m 4,317 ft / 1,316 m 33.10° 40.98° Concrete 0 ft / 0 m 0 ft / 0 m
09 98 ft / 30 m 5,355 ft / 1,632 m 89.24° 97.12° Concrete 0 ft / 0 m 0 ft / 0 m
22 151 ft / 46 m 4,317 ft / 1,316 m 213.10° 220.98° Concrete 0 ft / 0 m 551 ft / 168 m
27 98 ft / 30 m 5,355 ft / 1,632 m 269.25° 277.13° Concrete 0 ft / 0 m 0 ft / 0 m

Approach Navaids

Runway Type Ident Frequency Range Bearing (true) Bearing (mag) Slope Elevation
09 Localiser IETI 110.70 MHz 18 nm / 33 km 86.00° 93.88° - 17 ft / 5 m (AMSL)

Popular Alternatives